Andoya, Norway

5:35 PM CEST on September 17, 2014 (GMT +0200)
Andoya Air Base | Change Station
CLOSE
Current Station
Airport
Location: Andoya,
Elevation: 43 ft
Nearby Weather Stations

Elev 43 ft 69.29 °N, 16.14 °E | Updated 15 minutes ago

Light Drizzle
Light Drizzle
46 °F
Feels Like 42 °F
N
8
Wind Variable Wind from NW

Today
High -- | Low -- °F
--% Chance of Precip.
Yesterday
High -- | Low -- °F
Precip. -- in
6:16 AM 7:21 PM
Waning Crescent, 35% visible
Pressure 30.27 in
Visibility 6.2 miles
Clouds Few 1000 ft
Mostly Cloudy 2500 ft
Windchill 42 °F
Dew Point 43 °F
Humidity 87%
Rainfall 0.00 in
Snow Depth Not available.
UV 0 out of 12
Pollen Not available.
Air Quality Not available.
Flu Activity Not available.
METAR ENAN 171520Z 31007KT 9999 -DZ FEW010 BKN025 08/06 Q1025 NOSIG

More Conditions Fewer Conditions

Pressure 30.27 in
Visibility 6.2 miles
Clouds Few 1000 ft
Mostly Cloudy 2500 ft
Windchill 42 °F
Dew Point 43 °F
Humidity 87%
Rainfall 0.00 in
Snow Depth Not available.
UV 0 out of 12
Pollen Not available.
Air Quality Not available.
Flu Activity Not available.
METAR ENAN 171520Z 31007KT 9999 -DZ FEW010 BKN025 08/06 Q1025 NOSIG

More Conditions Fewer Conditions

10-Day Weather Forecast

Almanac

Astronomy

Sep. 17, 2014 Rise Set
Actual Time 6:16 AM CEST 7:21 PM CEST
Civil Twilight 5:15 AM CEST 8:22 PM CEST
Nautical Twilight 3:53 AM CEST 9:42 PM CEST
Astronomical Twilight 1:30 AM CEST 11:51 PM CEST
Moon 10:27 PM CEST 5:49 PM CEST
Length of Visible Light 15h 07m
Length of Day
13h 05m
Tomorrow will be 8m 17s shorter.
Waning Crescent, 35% of the Moon is Illuminated
Today
Waning Crescent
Sep 24
New
Oct 1
First Quarter
Oct 8
Full
Oct 15
Last Quarter

Today's Extremes

Country Highs Country Lows

Community

WunderPhotos

Upload Photos

1,754,068 photos uploaded!

WunderBlogs® & News

Nearby

Snow Depth

Not available.

Earthquake Activity

City Distance Mag. Time & Date
No recent earthquake activity has been reported nearby.
Minimum magnitude displayed is 2.5.

Coastal Water Temperatures

Place Temperature
No Stations Reporting

Nearby Weather Stations